This is the latest recevied weather packets stored in our database for station/object KB1PVH-13. If no packets are shown the sender has not sent any weather packets the latest 10 day(s).
| Time | Temp. | Humidity | Pressure | Rain* | Wind** | Luminosity | Snow |
|---|---|---|---|---|---|---|---|
| 1777373417 | 3.33° C | 93% | 938.8 hPa | 0 mm | - | - | - |
| 1777372217 | 2.78° C | 93% | 938.7 hPa | 0 mm | - | - | - |
| 1777371619 | 2.78° C | 92% | 938.8 hPa | 0 mm | - | - | - |
| 1777370417 | 2.78° C | 91% | 938.7 hPa | 0 mm | - | - | - |
| 1777369217 | 2.78° C | 91% | 938.6 hPa | 0 mm | - | - | - |
| 1777368617 | 3.33° C | 91% | 938.6 hPa | 0 mm | - | - | - |
| 1777366217 | 3.33° C | 90% | 938.8 hPa | 0 mm | - | - | - |
| 1777360217 | 4.44° C | 85% | 938.8 hPa | 0 mm | - | - | - |
| 1777353037 | 6.67° C | 78% | 939.7 hPa | 0 mm | - | - | - |
| 1777349417 | 6.67° C | 72% | 939.9 hPa | 0 mm | - | - | - |
| 1777348217 | 7.22° C | 70% | 940.3 hPa | 0 mm | - | - | - |
| 1777347658 | 7.78° C | 71% | 940.2 hPa | 0 mm | - | - | - |
| 1777345818 | 8.33° C | 67% | 940 hPa | 0 mm | - | - | - |
| 1777344617 | 8.89° C | 64% | 940.7 hPa | 0 mm | - | - | - |
| 1777344016 | 8.89° C | 64% | 940.4 hPa | 0 mm | - | - | - |
| 1777341616 | 10° C | 59% | 940.3 hPa | 0 mm | - | - | - |
| 1777341017 | 10° C | 56% | 940.5 hPa | 0 mm | - | - | - |
| 1777339216 | 11.11° C | 53% | 940.7 hPa | 0 mm | - | - | - |
| 1777335017 | 14.44° C | 43% | 940.1 hPa | 0 mm | - | - | - |
| 1777332616 | 16.11° C | 40% | 940.3 hPa | 0 mm | - | - | - |
| 1777323616 | 21.11° C | 30% | 939.7 hPa | 0 mm | - | - | - |
| 1777322416 | 21.11° C | 29% | 939.5 hPa | 0 mm | - | - | - |
| 1777321216 | 21.11° C | 31% | 939.4 hPa | 0 mm | - | - | - |
| 1777320616 | 21.67° C | 29% | 939.1 hPa | 0 mm | - | - | - |
| 1777317616 | 21.67° C | 29% | 939.7 hPa | 0 mm | - | - | - |
* Rain latest hour (hover to see other rain measurements)
** Current wind speed in m/s (hover to see current wind gust speed)